sensor_id;sensor_type;location;lat;lon;timestamp;pressure;altitude;pressure_sealevel;temperature;humidity
60817;BME280;51921;51.518;-3.188;2022-12-19T00:00:24;99963.73;;;10.13;100.00
60817;BME280;51921;51.518;-3.188;2022-12-19T00:02:49;99965.27;;;10.26;100.00
60817;BME280;51921;51.518;-3.188;2022-12-19T00:05:15;99963.00;;;9.95;100.00
60817;BME280;51921;51.518;-3.188;2022-12-19T00:07:40;99956.60;;;10.45;100.00
60817;BME280;51921;51.518;-3.188;2022-12-19T00:10:07;99954.63;;;9.48;100.00
60817;BME280;51921;51.518;-3.188;2022-12-19T00:12:31;99954.54;;;9.72;100.00
60817;BME280;51921;51.518;-3.188;2022-12-19T00:14:56;99959.95;;;10.11;100.00
60817;BME280;51921;51.518;-3.188;2022-12-19T00:17:22;99958.41;;;10.72;100.00
60817;BME280;51921;51.518;-3.188;2022-12-19T00:19:47;99953.38;;;10.39;100.00
60817;BME280;51921;51.518;-3.188;2022-12-19T00:22:13;99945.17;;;10.97;100.00
60817;BME280;51921;51.518;-3.188;2022-12-19T00:24:38;99934.97;;;9.84;100.00
60817;BME280;51921;51.518;-3.188;2022-12-19T00:27:04;99924.59;;;9.72;100.00
60817;BME280;51921;51.518;-3.188;2022-12-19T00:29:29;99918.74;;;11.14;100.00
60817;BME280;51921;51.518;-3.188;2022-12-19T00:31:55;99915.17;;;11.30;100.00
60817;BME280;51921;51.518;-3.188;2022-12-19T00:34:20;99916.31;;;9.82;100.00
60817;BME280;51921;51.518;-3.188;2022-12-19T00:36:45;99918.01;;;10.27;100.00
60817;BME280;51921;51.518;-3.188;2022-12-19T00:39:11;99919.65;;;11.34;100.00
60817;BME280;51921;51.518;-3.188;2022-12-19T00:41:38;99922.20;;;11.00;100.00
60817;BME280;51921;51.518;-3.188;2022-12-19T00:44:04;99926.08;;;10.44;100.00
60817;BME280;51921;51.518;-3.188;2022-12-19T00:46:28;99930.67;;;10.92;100.00
60817;BME280;51921;51.518;-3.188;2022-12-19T00:48:53;99932.83;;;10.81;100.00
60817;BME280;51921;51.518;-3.188;2022-12-19T00:51:21;99929.73;;;10.56;100.00
60817;BME280;51921;51.518;-3.188;2022-12-19T00:53:44;99938.23;;;10.95;100.00
60817;BME280;51921;51.518;-3.188;2022-12-19T00:56:11;99941.66;;;9.85;100.00
60817;BME280;51921;51.518;-3.188;2022-12-19T00:58:35;99947.70;;;10.04;100.00
60817;BME280;51921;51.518;-3.188;2022-12-19T01:01:05;99947.39;;;10.14;100.00
60817;BME280;51921;51.518;-3.188;2022-12-19T01:03:25;99941.99;;;9.73;100.00
60817;BME280;51921;51.518;-3.188;2022-12-19T01:05:51;99939.77;;;10.41;100.00
60817;BME280;51921;51.518;-3.188;2022-12-19T01:08:17;99942.54;;;9.60;100.00
60817;BME280;51921;51.518;-3.188;2022-12-19T01:10:45;99931.93;;;11.24;100.00
60817;BME280;51921;51.518;-3.188;2022-12-19T01:13:07;99932.57;;;10.98;100.00
60817;BME280;51921;51.518;-3.188;2022-12-19T01:15:32;99932.71;;;11.68;100.00
60817;BME280;51921;51.518;-3.188;2022-12-19T01:17:58;99938.14;;;11.19;100.00
60817;BME280;51921;51.518;-3.188;2022-12-19T01:20:23;99942.88;;;11.12;100.00
60817;BME280;51921;51.518;-3.188;2022-12-19T01:22:49;99930.48;;;11.77;100.00
60817;BME280;51921;51.518;-3.188;2022-12-19T01:25:14;99933.14;;;11.32;100.00
60817;BME280;51921;51.518;-3.188;2022-12-19T01:27:39;99935.02;;;11.03;100.00
60817;BME280;51921;51.518;-3.188;2022-12-19T01:30:06;99929.25;;;11.66;100.00
60817;BME280;51921;51.518;-3.188;2022-12-19T01:32:30;99931.50;;;11.72;100.00
60817;BME280;51921;51.518;-3.188;2022-12-19T01:34:56;99939.46;;;11.06;100.00
60817;BME280;51921;51.518;-3.188;2022-12-19T01:37:21;99949.40;;;10.89;100.00
60817;BME280;51921;51.518;-3.188;2022-12-19T01:39:46;99947.32;;;10.11;100.00
60817;BME280;51921;51.518;-3.188;2022-12-19T01:42:14;99950.71;;;10.33;100.00
60817;BME280;51921;51.518;-3.188;2022-12-19T01:44:37;99947.09;;;10.39;100.00
60817;BME280;51921;51.518;-3.188;2022-12-19T01:47:03;99946.83;;;10.23;100.00
60817;BME280;51921;51.518;-3.188;2022-12-19T01:49:31;99948.44;;;9.72;100.00
60817;BME280;51921;51.518;-3.188;2022-12-19T01:51:56;99939.20;;;10.52;100.00
60817;BME280;51921;51.518;-3.188;2022-12-19T01:54:22;99942.18;;;10.13;100.00
60817;BME280;51921;51.518;-3.188;2022-12-19T01:56:47;99941.30;;;9.86;100.00
60817;BME280;51921;51.518;-3.188;2022-12-19T01:59:15;99935.65;;;10.43;100.00
60817;BME280;51921;51.518;-3.188;2022-12-19T02:01:38;99930.62;;;10.25;100.00
60817;BME280;51921;51.518;-3.188;2022-12-19T02:04:02;99944.86;;;9.63;100.00
60817;BME280;51921;51.518;-3.188;2022-12-19T02:06:28;99945.60;;;10.02;100.00
60817;BME280;51921;51.518;-3.188;2022-12-19T02:08:52;99945.68;;;10.53;100.00
60817;BME280;51921;51.518;-3.188;2022-12-19T02:11:18;99947.32;;;9.91;100.00
60817;BME280;51921;51.518;-3.188;2022-12-19T02:13:43;99945.49;;;9.79;100.00
60817;BME280;51921;51.518;-3.188;2022-12-19T02:16:16;99940.87;;;10.26;100.00
60817;BME280;51921;51.518;-3.188;2022-12-19T02:18:40;99942.05;;;10.44;100.00
60817;BME280;51921;51.518;-3.188;2022-12-19T02:21:12;99943.17;;;10.14;100.00
60817;BME280;51921;51.518;-3.188;2022-12-19T02:23:41;99952.36;;;9.61;100.00
60817;BME280;51921;51.518;-3.188;2022-12-19T02:26:07;99954.20;;;9.39;100.00
60817;BME280;51921;51.518;-3.188;2022-12-19T02:30:52;99968.34;;;9.65;100.00
60817;BME280;51921;51.518;-3.188;2022-12-19T02:33:13;99950.38;;;10.13;100.00
60817;BME280;51921;51.518;-3.188;2022-12-19T02:35:36;99949.90;;;10.53;100.00
60817;BME280;51921;51.518;-3.188;2022-12-19T02:38:07;99952.53;;;10.34;100.00
60817;BME280;51921;51.518;-3.188;2022-12-19T02:40:26;99949.42;;;10.40;100.00
60817;BME280;51921;51.518;-3.188;2022-12-19T02:42:52;99951.81;;;10.90;100.00
60817;BME280;51921;51.518;-3.188;2022-12-19T02:45:15;99947.02;;;10.89;100.00
60817;BME280;51921;51.518;-3.188;2022-12-19T02:47:39;99945.93;;;10.76;100.00
60817;BME280;51921;51.518;-3.188;2022-12-19T02:52:42;99936.78;;;10.60;100.00
60817;BME280;51921;51.518;-3.188;2022-12-19T02:54:57;99937.25;;;11.10;100.00
60817;BME280;51921;51.518;-3.188;2022-12-19T02:57:27;99934.11;;;11.35;100.00
60817;BME280;51921;51.518;-3.188;2022-12-19T02:59:56;99941.35;;;10.58;100.00
60817;BME280;51921;51.518;-3.188;2022-12-19T03:02:18;99937.41;;;10.10;100.00
60817;BME280;51921;51.518;-3.188;2022-12-19T03:07:09;99942.08;;;10.60;100.00
60817;BME280;51921;51.518;-3.188;2022-12-19T03:09:35;99947.12;;;11.05;100.00
60817;BME280;51921;51.518;-3.188;2022-12-19T03:12:00;99945.35;;;11.04;100.00
60817;BME280;51921;51.518;-3.188;2022-12-19T03:14:20;99939.56;;;10.23;100.00
60817;BME280;51921;51.518;-3.188;2022-12-19T03:16:44;99934.66;;;11.01;100.00
60817;BME280;51921;51.518;-3.188;2022-12-19T03:19:11;99933.51;;;10.49;100.00
60817;BME280;51921;51.518;-3.188;2022-12-19T03:21:37;99933.70;;;10.71;100.00
60817;BME280;51921;51.518;-3.188;2022-12-19T03:24:01;99927.61;;;11.36;100.00
60817;BME280;51921;51.518;-3.188;2022-12-19T03:26:28;99935.51;;;10.46;100.00
60817;BME280;51921;51.518;-3.188;2022-12-19T03:28:53;99938.04;;;10.60;100.00
60817;BME280;51921;51.518;-3.188;2022-12-19T03:31:19;99933.17;;;10.27;100.00
60817;BME280;51921;51.518;-3.188;2022-12-19T03:33:43;99934.91;;;10.34;100.00
60817;BME280;51921;51.518;-3.188;2022-12-19T03:36:12;99923.96;;;10.78;100.00
60817;BME280;51921;51.518;-3.188;2022-12-19T03:38:34;99915.23;;;10.02;100.00
60817;BME280;51921;51.518;-3.188;2022-12-19T03:41:00;99913.32;;;10.08;100.00
60817;BME280;51921;51.518;-3.188;2022-12-19T03:43:25;99924.75;;;10.28;100.00
60817;BME280;51921;51.518;-3.188;2022-12-19T03:45:54;99919.67;;;11.51;100.00
60817;BME280;51921;51.518;-3.188;2022-12-19T03:48:19;99923.57;;;10.35;100.00
60817;BME280;51921;51.518;-3.188;2022-12-19T03:50:47;99931.08;;;10.28;100.00
60817;BME280;51921;51.518;-3.188;2022-12-19T03:53:12;99931.88;;;9.88;100.00
60817;BME280;51921;51.518;-3.188;2022-12-19T03:55:37;99939.32;;;9.43;100.00
60817;BME280;51921;51.518;-3.188;2022-12-19T03:58:00;99939.94;;;9.62;100.00
60817;BME280;51921;51.518;-3.188;2022-12-19T04:00:23;99944.21;;;9.75;100.00
60817;BME280;51921;51.518;-3.188;2022-12-19T04:02:49;99936.12;;;10.36;100.00
60817;BME280;51921;51.518;-3.188;2022-12-19T04:05:16;99935.65;;;10.70;100.00
60817;BME280;51921;51.518;-3.188;2022-12-19T04:07:39;99946.29;;;11.09;100.00
60817;BME280;51921;51.518;-3.188;2022-12-19T04:10:06;99939.19;;;10.07;100.00
60817;BME280;51921;51.518;-3.188;2022-12-19T04:12:34;99936.94;;;10.72;100.00
60817;BME280;51921;51.518;-3.188;2022-12-19T04:14:55;99931.96;;;11.30;100.00
60817;BME280;51921;51.518;-3.188;2022-12-19T04:17:26;99929.85;;;10.91;100.00
60817;BME280;51921;51.518;-3.188;2022-12-19T04:19:50;99934.17;;;10.41;100.00
60817;BME280;51921;51.518;-3.188;2022-12-19T04:22:13;99931.82;;;10.02;100.00
60817;BME280;51921;51.518;-3.188;2022-12-19T04:24:38;99934.61;;;9.91;100.00
60817;BME280;51921;51.518;-3.188;2022-12-19T04:27:05;99937.12;;;9.83;100.00
60817;BME280;51921;51.518;-3.188;2022-12-19T04:29:28;99940.22;;;10.31;100.00
60817;BME280;51921;51.518;-3.188;2022-12-19T04:31:53;99945.37;;;9.99;100.00
60817;BME280;51921;51.518;-3.188;2022-12-19T04:34:19;99944.78;;;9.88;100.00
60817;BME280;51921;51.518;-3.188;2022-12-19T04:36:43;99942.92;;;9.96;100.00
60817;BME280;51921;51.518;-3.188;2022-12-19T04:39:09;99940.96;;;9.48;100.00
60817;BME280;51921;51.518;-3.188;2022-12-19T04:41:34;99935.29;;;9.07;100.00
60817;BME280;51921;51.518;-3.188;2022-12-19T04:43:59;99930.09;;;10.15;100.00
60817;BME280;51921;51.518;-3.188;2022-12-19T04:46:25;99933.92;;;9.54;100.00
60817;BME280;51921;51.518;-3.188;2022-12-19T04:48:50;99927.36;;;9.24;100.00
60817;BME280;51921;51.518;-3.188;2022-12-19T04:51:16;99924.90;;;8.91;100.00
60817;BME280;51921;51.518;-3.188;2022-12-19T04:53:41;99924.02;;;9.10;100.00
60817;BME280;51921;51.518;-3.188;2022-12-19T04:56:08;99930.32;;;9.57;100.00
60817;BME280;51921;51.518;-3.188;2022-12-19T04:58:32;99923.10;;;9.58;100.00
60817;BME280;51921;51.518;-3.188;2022-12-19T05:01:00;99925.20;;;9.70;100.00
60817;BME280;51921;51.518;-3.188;2022-12-19T05:03:23;99916.51;;;8.80;100.00
60817;BME280;51921;51.518;-3.188;2022-12-19T05:05:49;99910.59;;;9.78;100.00
60817;BME280;51921;51.518;-3.188;2022-12-19T05:08:14;99913.33;;;9.39;100.00
60817;BME280;51921;51.518;-3.188;2022-12-19T05:10:40;99904.60;;;10.08;100.00
60817;BME280;51921;51.518;-3.188;2022-12-19T05:13:05;99895.90;;;9.53;100.00
60817;BME280;51921;51.518;-3.188;2022-12-19T05:15:31;99905.79;;;9.82;100.00
60817;BME280;51921;51.518;-3.188;2022-12-19T05:17:56;99903.77;;;10.66;100.00
60817;BME280;51921;51.518;-3.188;2022-12-19T05:20:22;99901.50;;;10.11;100.00
60817;BME280;51921;51.518;-3.188;2022-12-19T05:22:47;99896.07;;;10.68;100.00
60817;BME280;51921;51.518;-3.188;2022-12-19T05:25:13;99907.69;;;9.30;100.00
60817;BME280;51921;51.518;-3.188;2022-12-19T05:27:38;99905.06;;;9.80;100.00
60817;BME280;51921;51.518;-3.188;2022-12-19T05:30:05;99882.42;;;10.42;100.00
60817;BME280;51921;51.518;-3.188;2022-12-19T05:32:29;99892.44;;;9.54;100.00
60817;BME280;51921;51.518;-3.188;2022-12-19T05:34:54;99891.58;;;9.93;100.00
60817;BME280;51921;51.518;-3.188;2022-12-19T05:37:20;99877.57;;;10.08;100.00
60817;BME280;51921;51.518;-3.188;2022-12-19T05:39:45;99878.20;;;10.88;100.00
60817;BME280;51921;51.518;-3.188;2022-12-19T05:42:11;99882.49;;;9.70;100.00
60817;BME280;51921;51.518;-3.188;2022-12-19T05:44:36;99872.45;;;9.15;100.00
60817;BME280;51921;51.518;-3.188;2022-12-19T05:47:02;99884.06;;;9.82;100.00
60817;BME280;51921;51.518;-3.188;2022-12-19T05:49:27;99889.64;;;9.48;100.00
60817;BME280;51921;51.518;-3.188;2022-12-19T05:51:53;99887.19;;;10.32;100.00
60817;BME280;51921;51.518;-3.188;2022-12-19T05:54:18;99869.94;;;9.74;100.00
60817;BME280;51921;51.518;-3.188;2022-12-19T05:56:43;99860.91;;;9.47;100.00
60817;BME280;51921;51.518;-3.188;2022-12-19T05:59:09;99858.52;;;9.52;100.00
60817;BME280;51921;51.518;-3.188;2022-12-19T06:01:34;99865.22;;;9.38;100.00
60817;BME280;51921;51.518;-3.188;2022-12-19T06:04:00;99863.70;;;9.97;100.00
60817;BME280;51921;51.518;-3.188;2022-12-19T06:06:26;99861.10;;;9.80;100.00
60817;BME280;51921;51.518;-3.188;2022-12-19T06:08:52;99867.09;;;9.65;100.00
60817;BME280;51921;51.518;-3.188;2022-12-19T06:11:16;99871.72;;;10.09;100.00
60817;BME280;51921;51.518;-3.188;2022-12-19T06:13:41;99867.36;;;9.87;100.00
60817;BME280;51921;51.518;-3.188;2022-12-19T06:16:10;99871.04;;;11.07;100.00
60817;BME280;51921;51.518;-3.188;2022-12-19T06:18:32;99874.45;;;10.93;100.00
60817;BME280;51921;51.518;-3.188;2022-12-19T06:20:59;99879.64;;;10.45;100.00
60817;BME280;51921;51.518;-3.188;2022-12-19T06:23:23;99880.02;;;10.08;100.00
60817;BME280;51921;51.518;-3.188;2022-12-19T06:25:48;99884.60;;;10.37;100.00
60817;BME280;51921;51.518;-3.188;2022-12-19T06:28:14;99883.97;;;10.02;100.00
60817;BME280;51921;51.518;-3.188;2022-12-19T06:30:39;99887.14;;;9.50;100.00
60817;BME280;51921;51.518;-3.188;2022-12-19T06:33:05;99884.78;;;9.92;100.00
60817;BME280;51921;51.518;-3.188;2022-12-19T06:35:30;99887.12;;;9.82;100.00
60817;BME280;51921;51.518;-3.188;2022-12-19T06:37:56;99881.00;;;9.52;100.00
60817;BME280;51921;51.518;-3.188;2022-12-19T06:40:21;99878.12;;;9.24;100.00
60817;BME280;51921;51.518;-3.188;2022-12-19T06:42:47;99880.54;;;9.27;100.00
60817;BME280;51921;51.518;-3.188;2022-12-19T06:45:12;99894.76;;;9.39;100.00
60817;BME280;51921;51.518;-3.188;2022-12-19T06:47:38;99885.79;;;10.00;100.00
60817;BME280;51921;51.518;-3.188;2022-12-19T06:50:04;99892.14;;;9.65;100.00
60817;BME280;51921;51.518;-3.188;2022-12-19T06:52:28;99895.57;;;9.40;100.00
60817;BME280;51921;51.518;-3.188;2022-12-19T06:54:54;99902.04;;;9.81;100.00
60817;BME280;51921;51.518;-3.188;2022-12-19T06:57:19;99894.86;;;9.99;100.00
60817;BME280;51921;51.518;-3.188;2022-12-19T06:59:45;99895.85;;;9.16;100.00
60817;BME280;51921;51.518;-3.188;2022-12-19T07:02:21;99894.44;;;10.08;100.00
60817;BME280;51921;51.518;-3.188;2022-12-19T07:04:47;99903.41;;;10.12;100.00
60817;BME280;51921;51.518;-3.188;2022-12-19T07:07:02;99911.73;;;9.48;100.00
60817;BME280;51921;51.518;-3.188;2022-12-19T07:09:28;99905.74;;;10.49;100.00
60817;BME280;51921;51.518;-3.188;2022-12-19T07:11:52;99909.81;;;10.74;100.00
60817;BME280;51921;51.518;-3.188;2022-12-19T07:14:17;99912.86;;;10.49;100.00
60817;BME280;51921;51.518;-3.188;2022-12-19T07:16:43;99916.47;;;9.72;100.00
60817;BME280;51921;51.518;-3.188;2022-12-19T07:19:09;99919.17;;;10.19;100.00
60817;BME280;51921;51.518;-3.188;2022-12-19T07:21:34;99923.06;;;11.05;100.00
60817;BME280;51921;51.518;-3.188;2022-12-19T07:23:59;99918.79;;;9.78;100.00
60817;BME280;51921;51.518;-3.188;2022-12-19T07:26:25;99916.90;;;9.78;100.00
60817;BME280;51921;51.518;-3.188;2022-12-19T07:28:50;99923.57;;;10.50;100.00
60817;BME280;51921;51.518;-3.188;2022-12-19T07:31:16;99916.82;;;9.57;100.00
60817;BME280;51921;51.518;-3.188;2022-12-19T07:33:42;99919.72;;;9.62;100.00
60817;BME280;51921;51.518;-3.188;2022-12-19T07:36:06;99923.72;;;9.49;100.00
60817;BME280;51921;51.518;-3.188;2022-12-19T07:38:37;99926.86;;;9.93;100.00
60817;BME280;51921;51.518;-3.188;2022-12-19T07:40:59;99924.49;;;9.92;100.00
60817;BME280;51921;51.518;-3.188;2022-12-19T07:43:22;99923.48;;;10.11;100.00
60817;BME280;51921;51.518;-3.188;2022-12-19T07:45:53;99914.59;;;10.60;100.00
60817;BME280;51921;51.518;-3.188;2022-12-19T07:48:13;99918.13;;;10.16;100.00
60817;BME280;51921;51.518;-3.188;2022-12-19T07:50:39;99917.44;;;10.35;100.00
60817;BME280;51921;51.518;-3.188;2022-12-19T07:53:04;99913.32;;;10.68;100.00
60817;BME280;51921;51.518;-3.188;2022-12-19T07:55:30;99916.14;;;10.85;100.00
60817;BME280;51921;51.518;-3.188;2022-12-19T07:57:55;99915.70;;;10.80;100.00
60817;BME280;51921;51.518;-3.188;2022-12-19T08:00:21;99914.69;;;11.34;100.00
60817;BME280;51921;51.518;-3.188;2022-12-19T08:02:46;99907.74;;;10.20;100.00
60817;BME280;51921;51.518;-3.188;2022-12-19T08:05:11;99905.53;;;9.80;100.00
60817;BME280;51921;51.518;-3.188;2022-12-19T08:07:37;99904.88;;;10.10;100.00
60817;BME280;51921;51.518;-3.188;2022-12-19T08:10:03;99898.28;;;10.47;100.00
60817;BME280;51921;51.518;-3.188;2022-12-19T08:12:28;99891.96;;;10.03;100.00
60817;BME280;51921;51.518;-3.188;2022-12-19T08:14:53;99900.96;;;10.42;100.00
60817;BME280;51921;51.518;-3.188;2022-12-19T08:17:19;99903.62;;;10.39;100.00
60817;BME280;51921;51.518;-3.188;2022-12-19T08:19:44;99896.57;;;10.71;100.00
60817;BME280;51921;51.518;-3.188;2022-12-19T08:22:10;99886.68;;;10.53;100.00
60817;BME280;51921;51.518;-3.188;2022-12-19T08:24:35;99874.21;;;11.34;100.00
60817;BME280;51921;51.518;-3.188;2022-12-19T08:27:01;99875.23;;;11.14;100.00
60817;BME280;51921;51.518;-3.188;2022-12-19T08:29:26;99881.71;;;10.80;100.00
60817;BME280;51921;51.518;-3.188;2022-12-19T08:31:56;99875.03;;;9.72;100.00
60817;BME280;51921;51.518;-3.188;2022-12-19T08:34:17;99873.88;;;10.49;100.00
60817;BME280;51921;51.518;-3.188;2022-12-19T08:36:42;99889.60;;;10.05;100.00
60817;BME280;51921;51.518;-3.188;2022-12-19T08:39:07;99891.95;;;9.77;100.00
60817;BME280;51921;51.518;-3.188;2022-12-19T08:41:33;99892.32;;;9.93;100.00
60817;BME280;51921;51.518;-3.188;2022-12-19T08:43:59;99900.80;;;9.85;100.00
60817;BME280;51921;51.518;-3.188;2022-12-19T08:46:24;99914.82;;;9.32;100.00
60817;BME280;51921;51.518;-3.188;2022-12-19T08:48:50;99921.01;;;9.62;100.00
60817;BME280;51921;51.518;-3.188;2022-12-19T08:51:16;99928.66;;;9.02;100.00
60817;BME280;51921;51.518;-3.188;2022-12-19T08:53:42;99927.58;;;9.19;100.00
60817;BME280;51921;51.518;-3.188;2022-12-19T08:56:09;99928.24;;;10.58;100.00
60817;BME280;51921;51.518;-3.188;2022-12-19T08:58:31;99916.68;;;10.68;100.00
60817;BME280;51921;51.518;-3.188;2022-12-19T09:00:58;99925.04;;;10.63;100.00
60817;BME280;51921;51.518;-3.188;2022-12-19T09:03:22;99924.36;;;10.47;100.00
60817;BME280;51921;51.518;-3.188;2022-12-19T09:05:54;99926.27;;;10.44;100.00
60817;BME280;51921;51.518;-3.188;2022-12-19T09:08:12;99935.29;;;9.35;100.00
60817;BME280;51921;51.518;-3.188;2022-12-19T09:10:38;99924.95;;;8.81;100.00
60817;BME280;51921;51.518;-3.188;2022-12-19T09:13:04;99910.44;;;10.50;100.00
60817;BME280;51921;51.518;-3.188;2022-12-19T09:15:28;99914.51;;;9.42;100.00
60817;BME280;51921;51.518;-3.188;2022-12-19T09:17:54;99904.82;;;9.81;100.00
60817;BME280;51921;51.518;-3.188;2022-12-19T09:20:19;99900.08;;;8.77;100.00
60817;BME280;51921;51.518;-3.188;2022-12-19T09:22:45;99893.29;;;8.83;100.00
60817;BME280;51921;51.518;-3.188;2022-12-19T09:25:10;99889.52;;;8.62;100.00
60817;BME280;51921;51.518;-3.188;2022-12-19T09:27:35;99880.56;;;9.23;100.00
60817;BME280;51921;51.518;-3.188;2022-12-19T09:30:01;99879.85;;;8.03;100.00
60817;BME280;51921;51.518;-3.188;2022-12-19T09:32:26;99873.54;;;9.93;100.00
60817;BME280;51921;51.518;-3.188;2022-12-19T09:34:52;99870.63;;;8.46;100.00
60817;BME280;51921;51.518;-3.188;2022-12-19T09:37:18;99866.27;;;9.36;100.00
60817;BME280;51921;51.518;-3.188;2022-12-19T09:39:43;99857.75;;;9.50;100.00
60817;BME280;51921;51.518;-3.188;2022-12-19T09:42:19;99857.14;;;9.82;100.00
60817;BME280;51921;51.518;-3.188;2022-12-19T09:44:47;99845.44;;;10.28;100.00
60817;BME280;51921;51.518;-3.188;2022-12-19T09:47:00;99854.30;;;9.64;100.00
60817;BME280;51921;51.518;-3.188;2022-12-19T09:49:28;99847.11;;;9.17;100.00
60817;BME280;51921;51.518;-3.188;2022-12-19T09:51:57;99842.45;;;9.07;100.00
60817;BME280;51921;51.518;-3.188;2022-12-19T09:54:19;99839.30;;;9.35;100.00
60817;BME280;51921;51.518;-3.188;2022-12-19T09:56:43;99838.02;;;9.44;100.00
60817;BME280;51921;51.518;-3.188;2022-12-19T09:59:11;99845.16;;;8.94;100.00
60817;BME280;51921;51.518;-3.188;2022-12-19T10:01:36;99847.68;;;8.50;100.00
60817;BME280;51921;51.518;-3.188;2022-12-19T10:04:01;99847.01;;;8.74;100.00
60817;BME280;51921;51.518;-3.188;2022-12-19T10:06:23;99842.30;;;9.14;100.00
60817;BME280;51921;51.518;-3.188;2022-12-19T10:08:48;99842.92;;;8.70;100.00
60817;BME280;51921;51.518;-3.188;2022-12-19T10:11:26;99849.92;;;8.50;100.00
60817;BME280;51921;51.518;-3.188;2022-12-19T10:13:51;99846.85;;;8.96;100.00
60817;BME280;51921;51.518;-3.188;2022-12-19T10:16:09;99838.56;;;8.97;100.00
60817;BME280;51921;51.518;-3.188;2022-12-19T10:18:41;99827.47;;;8.51;100.00
60817;BME280;51921;51.518;-3.188;2022-12-19T10:21:02;99836.28;;;8.72;100.00
60817;BME280;51921;51.518;-3.188;2022-12-19T10:23:41;99839.60;;;8.67;100.00
60817;BME280;51921;51.518;-3.188;2022-12-19T10:25:50;99847.10;;;8.83;100.00
60817;BME280;51921;51.518;-3.188;2022-12-19T10:28:22;99845.67;;;8.88;100.00
60817;BME280;51921;51.518;-3.188;2022-12-19T10:30:40;99854.93;;;8.57;100.00
60817;BME280;51921;51.518;-3.188;2022-12-19T10:33:12;99856.79;;;8.89;100.00
60817;BME280;51921;51.518;-3.188;2022-12-19T10:35:33;99850.54;;;8.52;100.00
60817;BME280;51921;51.518;-3.188;2022-12-19T10:37:59;99857.03;;;8.85;100.00
60817;BME280;51921;51.518;-3.188;2022-12-19T10:40:24;99846.78;;;8.63;100.00
60817;BME280;51921;51.518;-3.188;2022-12-19T10:42:48;99843.80;;;8.93;100.00
60817;BME280;51921;51.518;-3.188;2022-12-19T10:45:14;99840.55;;;9.41;100.00
60817;BME280;51921;51.518;-3.188;2022-12-19T10:47:35;99842.06;;;9.16;100.00
60817;BME280;51921;51.518;-3.188;2022-12-19T10:50:01;99841.37;;;9.27;100.00
60817;BME280;51921;51.518;-3.188;2022-12-19T10:52:46;99847.18;;;8.33;100.00
60817;BME280;51921;51.518;-3.188;2022-12-19T10:54:51;99856.91;;;8.78;100.00
60817;BME280;51921;51.518;-3.188;2022-12-19T10:57:21;99854.21;;;8.69;100.00
60817;BME280;51921;51.518;-3.188;2022-12-19T11:02:16;99848.48;;;8.18;100.00
60817;BME280;51921;51.518;-3.188;2022-12-19T11:04:35;99851.58;;;8.43;100.00
60817;BME280;51921;51.518;-3.188;2022-12-19T11:07:14;99849.43;;;8.96;100.00
60817;BME280;51921;51.518;-3.188;2022-12-19T11:09:27;99853.62;;;8.61;100.00
60817;BME280;51921;51.518;-3.188;2022-12-19T11:11:57;99863.09;;;8.86;100.00
60817;BME280;51921;51.518;-3.188;2022-12-19T11:14:22;99872.33;;;9.81;100.00
60817;BME280;51921;51.518;-3.188;2022-12-19T11:16:41;99873.10;;;9.62;100.00
60817;BME280;51921;51.518;-3.188;2022-12-19T11:21:33;99894.38;;;9.57;100.00
60817;BME280;51921;51.518;-3.188;2022-12-19T11:24:02;99888.09;;;10.11;100.00
60817;BME280;51921;51.518;-3.188;2022-12-19T11:28:47;99881.84;;;10.75;100.00
60817;BME280;51921;51.518;-3.188;2022-12-19T11:31:19;99876.39;;;10.95;100.00
60817;BME280;51921;51.518;-3.188;2022-12-19T11:33:44;99869.29;;;9.95;100.00
60817;BME280;51921;51.518;-3.188;2022-12-19T11:36:05;99866.21;;;11.46;100.00
60817;BME280;51921;51.518;-3.188;2022-12-19T11:38:35;99855.12;;;9.93;100.00
60817;BME280;51921;51.518;-3.188;2022-12-19T11:40:56;99852.71;;;10.37;100.00
60817;BME280;51921;51.518;-3.188;2022-12-19T11:43:25;99846.10;;;10.78;100.00
60817;BME280;51921;51.518;-3.188;2022-12-19T11:45:50;99855.28;;;9.68;100.00
60817;BME280;51921;51.518;-3.188;2022-12-19T11:48:15;99846.50;;;10.72;100.00
60817;BME280;51921;51.518;-3.188;2022-12-19T11:50:40;99838.31;;;10.41;100.00
60817;BME280;51921;51.518;-3.188;2022-12-19T11:53:09;99837.20;;;10.35;100.00
60817;BME280;51921;51.518;-3.188;2022-12-19T11:55:40;99827.60;;;9.76;100.00
60817;BME280;51921;51.518;-3.188;2022-12-19T11:57:53;99837.61;;;10.39;100.00
60817;BME280;51921;51.518;-3.188;2022-12-19T12:00:20;99840.60;;;10.24;100.00
60817;BME280;51921;51.518;-3.188;2022-12-19T12:02:58;99824.79;;;10.96;100.00
60817;BME280;51921;51.518;-3.188;2022-12-19T12:07:36;99823.21;;;11.01;100.00
60817;BME280;51921;51.518;-3.188;2022-12-19T12:10:02;99828.69;;;11.15;100.00
60817;BME280;51921;51.518;-3.188;2022-12-19T12:12:28;99819.64;;;10.80;100.00
60817;BME280;51921;51.518;-3.188;2022-12-19T12:19:52;99813.23;;;10.46;100.00
60817;BME280;51921;51.518;-3.188;2022-12-19T12:22:18;99817.93;;;9.95;100.00
60817;BME280;51921;51.518;-3.188;2022-12-19T12:24:40;99813.91;;;10.17;100.00
60817;BME280;51921;51.518;-3.188;2022-12-19T12:27:02;99808.25;;;9.64;100.00
60817;BME280;51921;51.518;-3.188;2022-12-19T12:29:24;99813.42;;;10.22;100.00
60817;BME280;51921;51.518;-3.188;2022-12-19T12:31:59;99813.34;;;9.84;100.00
60817;BME280;51921;51.518;-3.188;2022-12-19T12:34:24;99809.58;;;9.51;100.00
60817;BME280;51921;51.518;-3.188;2022-12-19T12:36:44;99808.00;;;9.69;100.00
60817;BME280;51921;51.518;-3.188;2022-12-19T12:39:11;99808.59;;;9.83;100.00
60817;BME280;51921;51.518;-3.188;2022-12-19T12:41:36;99806.69;;;9.72;100.00
60817;BME280;51921;51.518;-3.188;2022-12-19T12:44:05;99804.17;;;10.25;100.00
60817;BME280;51921;51.518;-3.188;2022-12-19T12:46:24;99802.85;;;10.18;100.00
60817;BME280;51921;51.518;-3.188;2022-12-19T12:48:52;99800.90;;;9.79;100.00
60817;BME280;51921;51.518;-3.188;2022-12-19T12:51:11;99805.41;;;9.70;100.00
60817;BME280;51921;51.518;-3.188;2022-12-19T12:53:39;99796.16;;;10.05;100.00
60817;BME280;51921;51.518;-3.188;2022-12-19T12:56:03;99798.08;;;10.09;100.00